Latest Weather Observations for Sydney Airport

IDN60801

Issued at 12:33 pm EST Thursday 28 July 2016 (issued every 30 minutes, with the page automatically refreshed every 10 minutes)

About weather observations | Map of weather stations | Latest weather observations for NSW | Other Formats
Station Details ID: 066037 Name: SYDNEY AIRPORT AMO Lat: -33.95 Lon: 151.17 Height: 6.0 m
Data from the previous 72 hours. | See also: Recent months at Sydney Airport
Date/Time
EST
Temp
°C
App
Temp
°C
Dew
Point
°C
Rel
Hum
%
Delta-T
°C
Wind Press
QNH
hPa
Press
MSL
hPa
Rain since
9am
mm
Dir  Spd
km/h
Gust
km/h
Spd
kts
Gust
kts
28/12:00pm 17.7 13.0 0.8 32 7.4 NW 15 22 8 12 1022.5 1022.5 0.0
28/11:30am 17.3 12.3 1.5 34 7.0 WNW 17 24 9 13 1023.1 1023.1 0.0
28/11:00am 16.1 11.7 2.8 41 6.0 WNW 15 19 8 10 1023.6 1023.6 0.0
28/10:30am 15.4 10.7 2.9 43 5.6 WNW 17 26 9 14 1024.2 1024.2 0.0
28/10:00am 14.3 8.5 2.5 45 5.2 W 22 30 12 16 1024.3 1024.3 0.0
28/09:30am 14.1 9.2 2.2 44 5.2 W 17 22 9 12 1024.0 1024.0 0.0
28/09:00am 12.7 7.2 2.0 48 4.6 WSW 20 26 11 14 1024.0 1024.0 0.0
28/08:30am 11.8 6.3 1.9 50 4.2 WSW 20 26 11 14 1023.9 1023.9 0.0
28/08:00am 10.8 4.6 2.0 54 3.7 WSW 24 33 13 18 1023.8 1023.8 0.0
28/07:30am 9.5 5.6 3.2 65 2.7 WNW 13 17 7 9 1023.6 1023.6 0.0
28/07:00am 9.8 6.3 3.3 64 2.8 NW 11 15 6 8 1023.2 1023.2 0.0
28/06:30am 9.6 4.9 3.1 64 2.8 WNW 17 20 9 11 1022.5 1022.5 0.0
28/06:00am 8.1 4.2 3.4 72 2.0 WNW 13 19 7 10 1022.2 1022.2 0.0
28/05:30am 9.2 4.5 3.4 67 2.5 W 17 20 9 11 1022.1 1022.1 0.0
28/05:00am 9.8 5.1 3.3 64 2.8 W 17 22 9 12 1021.5 1021.5 0.0
28/04:30am 10.4 5.2 3.5 62 3.0 WNW 20 26 11 14 1021.0 1021.0 0.0
28/04:00am 10.1 5.1 3.7 64 2.8 NW 19 24 10 13 1020.7 1020.7 0.0
28/03:30am 10.9 5.7 3.6 60 3.2 W 20 26 11 14 1020.5 1020.5 0.0
28/03:00am 10.7 4.4 3.6 61 3.1 W 26 32 14 17 1020.4 1020.4 0.0
28/02:30am 10.6 4.3 3.5 61 3.1 W 26 30 14 16 1020.6 1020.6 0.0
28/02:00am 10.9 5.3 3.3 59 3.3 W 22 30 12 16 1021.0 1021.0 0.0
28/01:30am 10.9 5.3 3.6 60 3.2 WNW 22 30 12 16 1021.0 1021.0 0.0
28/01:00am 11.1 5.1 3.6 60 3.3 WNW 24 30 13 16 1020.9 1020.9 0.0
28/12:30am 11.6 6.0 3.4 57 3.6 W 22 30 12 16 1020.9 1020.9 0.0
28/12:00am 11.8 5.4 3.1 55 3.8 W 26 32 14 17 1020.6 1020.6 0.0
 
Date/Time
EST
Temp
°C
App
Temp
°C
Dew
Point
°C
Rel
Hum
%
Delta-T
°C
Wind Press
QNH
hPa
Press
MSL
hPa
Rain since
9am
mm
Dir  Spd
km/h
Gust
km/h
Spd
kts
Gust
kts
27/11:30pm 11.8 5.1 3.4 56 3.7 W 28 35 15 19 1020.2 1020.2 0.0
27/11:00pm 12.3 6.3 3.2 54 4.0 WNW 24 30 13 16 1019.8 1019.8 0.0
27/10:30pm 12.5 5.0 3.2 53 4.1 WNW 32 41 17 22 1019.8 1019.8 0.0
27/10:00pm 12.6 5.0 3.1 52 4.2 W 32 37 17 20 1019.9 1019.9 0.0
27/09:30pm 12.8 6.4 3.0 51 4.3 W 26 33 14 18 1019.8 1019.8 0.0
27/09:00pm 12.8 7.2 3.3 52 4.2 W 22 30 12 16 1019.6 1019.6 0.0
27/08:30pm 13.5 8.4 3.2 49 4.6 WNW 19 26 10 14 1019.2 1019.2 0.0
27/08:00pm 13.8 8.1 3.0 48 4.8 WNW 22 30 12 16 1018.8 1018.8 0.0
27/07:30pm 14.1 8.0 2.5 45 5.1 WNW 24 30 13 16 1018.4 1018.4 0.0
27/07:00pm 14.2 6.6 3.0 47 5.0 W 32 37 17 20 1017.9 1017.9 0.0
27/06:30pm 14.4 7.9 2.4 44 5.3 W 26 35 14 19 1017.2 1017.2 0.0
27/06:00pm 15.0 9.3 2.7 43 5.5 W 22 33 12 18 1016.4 1016.4 0.0
27/05:30pm 15.3 8.7 1.9 40 5.9 WSW 26 33 14 18 1015.9 1015.9 0.0
27/05:00pm 15.9 7.2 2.2 39 6.1 W 37 50 20 27 1015.4 1015.4 0.0
27/04:30pm 16.6 8.8 1.4 36 6.7 W 32 44 17 24 1014.7 1014.7 0.0
27/04:00pm 17.3 9.5 1.9 35 6.9 W 32 41 17 22 1014.3 1014.3 0.0
27/03:30pm 17.5 9.6 0.9 32 7.3 W 32 48 17 26 1013.9 1013.9 0.0
27/03:00pm 17.7 9.6 1.3 33 7.3 W 33 48 18 26 1013.4 1013.4 0.0
27/02:30pm 18.5 9.4 1.6 32 7.6 WSW 39 54 21 29 1013.1 1013.1 0.0
27/02:00pm 18.4 9.1 0.4 29 7.9 W 39 52 21 28 1012.9 1012.9 0.0
27/01:32pm 18.3 9.8 0.6 30 7.8 W 35 54 19 29 1012.6 1012.6 0.0
27/01:30pm 18.4 10.3 1.1 31 7.7 W 33 44 18 24 1012.6 1012.6 0.0
27/01:02pm 17.9 10.7 0.6 31 7.6 W 28 50 15 27 1012.6 1012.6 0.0
27/01:00pm 18.7 11.9 0.6 29 8.0 W 26 50 14 27 1012.5 1012.5 0.0
27/12:54pm 18.0 10.4 0.4 30 7.7 WNW 30 50 16 27 1012.4 1012.4 0.0
27/12:30pm 18.3 11.1 0.6 30 7.8 W 28 37 15 20 1012.4 1012.4 0.0
27/12:00pm 18.6 9.8 1.5 32 7.7 W 37 54 20 29 1012.5 1012.5 0.0
27/11:30am 18.2 10.3 2.1 34 7.3 WNW 33 44 18 24 1012.2 1012.2 0.0
27/11:00am 17.5 8.6 2.9 37 6.7 W 39 50 21 27 1011.7 1011.7 0.0
27/10:30am 17.8 10.0 2.8 36 6.9 WNW 33 52 18 28 1012.3 1012.3 0.0
27/10:21am 17.7 10.9 3.2 38 6.7 WNW 28 52 15 28 1012.4 1012.4 0.0
27/10:00am 17.0 11.4 3.3 40 6.3 NW 22 35 12 19 1012.7 1012.7 0.0
27/09:30am 16.3 9.9 3.2 41 6.0 NW 26 35 14 19 1012.3 1012.3 0.0
27/09:00am 15.8 9.8 3.6 44 5.6 NW 24 33 13 18 1012.0 1012.0 0.0
27/08:30am 14.5 6.9 2.9 45 5.2 NW 32 41 17 22 1011.6 1011.6 0.0
27/08:00am 14.2 6.4 2.7 46 5.1 NW 33 37 18 20 1011.8 1011.8 0.0
27/07:30am 13.6 5.9 2.2 46 5.0 NW 32 39 17 21 1011.6 1011.6 0.0
27/07:00am 13.8 6.0 1.9 44 5.2 NNW 32 39 17 21 1011.3 1011.3 0.0
27/06:30am 12.7 7.5 2.4 49 4.5 NNW 19 28 10 15 1011.4 1011.4 0.0
27/06:00am 12.7 6.5 2.4 49 4.5 NNW 24 30 13 16 1011.4 1011.4 0.0
27/05:30am 12.5 7.3 2.7 51 4.3 NNW 19 30 10 16 1011.5 1011.5 0.0
27/05:00am 11.8 6.5 3.2 55 3.8 NW 20 28 11 15 1011.7 1011.7 0.0
27/04:30am 11.1 5.5 3.4 59 3.4 NNW 22 26 12 14 1011.5 1011.5 0.0
27/04:00am 11.1 5.4 3.1 58 3.5 NNW 22 26 12 14 1011.6 1011.6 0.0
27/03:30am 11.9 6.1 2.4 52 4.1 NNW 22 28 12 15 1011.9 1011.9 0.0
27/03:00am 11.7 5.8 1.9 51 4.2 NNW 22 30 12 16 1012.0 1012.0 0.0
27/02:30am 11.9 7.3 1.5 49 4.4 NW 15 19 8 10 1013.0 1013.0 0.0
27/02:00am 11.8 7.2 1.4 49 4.4 NNW 15 15 8 8 1013.6 1013.6 0.0
27/01:30am 12.0 7.8 1.7 49 4.4 N 13 15 7 8 1013.7 1013.7 0.0
27/01:00am 11.9 8.2 2.4 52 4.1 NNW 11 13 6 7 1013.5 1013.5 0.0
27/12:30am 12.9 8.0 2.0 47 4.7 N 17 19 9 10 1013.8 1013.8 0.0
27/12:00am 13.1 8.2 2.0 47 4.8 N 17 19 9 10 1014.1 1014.1 0.0
 
Date/Time
EST
Temp
°C
App
Temp
°C
Dew
Point
°C
Rel
Hum
%
Delta-T
°C
Wind Press
QNH
hPa
Press
MSL
hPa
Rain since
9am
mm
Dir  Spd
km/h
Gust
km/h
Spd
kts
Gust
kts
26/11:30pm 12.9 9.3 2.9 50 4.4 NNE 11 13 6 7 1014.2 1014.2 0.0
26/11:00pm 12.2 8.9 2.5 51 4.2 NNE 9 11 5 6 1014.4 1014.4 0.0
26/10:30pm 12.9 9.6 2.3 48 4.6 NNE 9 11 5 6 1014.7 1014.7 0.0
26/10:00pm 12.6 9.7 2.5 50 4.4 NW 7 9 4 5 1014.6 1014.6 0.0
26/09:30pm 12.3 8.9 2.1 49 4.4 W 9 13 5 7 1014.6 1014.6 0.0
26/09:00pm 12.4 8.6 3.7 55 3.9 WSW 13 17 7 9 1014.7 1014.7 0.0
26/08:30pm 13.3 8.4 2.0 46 4.9 W 17 24 9 13 1014.6 1014.6 0.0
26/08:00pm 13.5 7.6 1.4 43 5.2 W 22 28 12 15 1014.5 1014.5 0.0
26/07:30pm 13.8 7.1 1.5 43 5.3 W 26 32 14 17 1014.4 1014.4 0.0
26/07:00pm 14.6 7.8 1.1 40 5.8 W 26 32 14 17 1014.1 1014.1 0.0
26/06:30pm 14.6 8.2 1.1 40 5.8 WSW 24 28 13 15 1013.7 1013.7 0.0
26/06:00pm 15.9 9.0 0.2 34 6.7 W 26 37 14 20 1013.3 1013.3 0.0
26/05:30pm 16.3 8.0 -0.1 32 7.0 WNW 33 46 18 25 1013.2 1013.2 0.0
26/05:00pm 17.3 11.5 -0.1 30 7.5 WNW 20 37 11 20 1012.9 1012.9 0.0
26/04:30pm 18.1 14.9 2.9 36 7.0 NE 9 17 5 9 1012.6 1012.6 0.0
26/04:00pm 17.1 12.8 5.2 45 5.7 E 17 20 9 11 1012.5 1012.5 0.0
26/03:30pm 17.1 12.5 5.8 47 5.5 E 19 24 10 13 1012.7 1012.7 0.0
26/03:00pm 17.1 12.1 4.4 43 6.0 E 20 26 11 14 1012.9 1012.9 0.0
26/02:30pm 17.1 12.6 4.4 43 6.0 E 17 24 9 13 1012.8 1012.8 0.0
26/02:00pm 16.9 11.9 3.8 41 6.1 E 19 26 10 14 1013.0 1013.0 0.0
26/01:30pm 17.0 11.9 3.3 40 6.3 E 19 26 10 14 1013.2 1013.2 0.0
26/01:00pm 17.0 12.1 2.1 36 6.7 E 17 24 9 13 1013.4 1013.4 0.0
26/12:30pm 16.8 12.9 3.3 40 6.2 SE 13 17 7 9 1013.8 1013.8 0.0
26/12:00pm 16.8 13.2 3.0 39 6.3 SSE 11 15 6 8 1014.3 1014.3 0.0
26/11:30am 15.9 12.8 5.4 49 5.0 SSE 11 15 6 8 1014.6 1014.6 0.0
26/11:00am 15.7 13.0 5.4 50 4.9 SSW 9 13 5 7 1014.9 1014.9 0.0
26/10:30am 16.6 13.3 2.7 39 6.3 W 9 11 5 6 1015.0 1015.0 0.0
26/10:00am 17.5 14.2 2.6 37 6.8 NNW 9 13 5 7 1015.2 1015.2 0.0
26/09:30am 16.0 11.9 2.4 40 6.1 N 13 19 7 10 1014.9 1014.9 0.0
26/09:00am 15.8 11.7 2.4 40 6.0 N 13 17 7 9 1014.6 1014.6 0.0
26/08:30am 14.7 10.3 2.6 44 5.4 N 15 17 8 9 1014.4 1014.4 0.0
26/08:00am 13.1 9.0 2.3 48 4.7 N 13 17 7 9 1014.2 1014.2 0.0
26/07:30am 11.8 7.7 2.3 52 4.1 N 13 17 7 9 1014.0 1014.0 0.0
26/07:00am 11.9 7.3 1.8 50 4.3 N 15 19 8 10 1013.5 1013.5 0.0
26/06:30am 11.6 6.7 1.7 50 4.2 NNE 17 19 9 10 1012.9 1012.9 0.0
26/06:00am 10.9 6.7 1.6 52 3.9 N 13 17 7 9 1012.7 1012.7 0.0
26/05:30am 10.5 5.5 1.4 53 3.8 N 17 20 9 11 1012.5 1012.5 0.0
26/05:00am 10.3 4.9 1.4 54 3.7 N 19 22 10 12 1012.0 1012.0 0.0
26/04:30am 10.2 5.2 1.3 54 3.7 NNE 17 19 9 10 1011.8 1011.8 0.0
26/04:00am 10.1 5.9 1.5 55 3.6 NNE 13 15 7 8 1011.9 1011.9 0.0
26/03:30am 10.5 5.9 1.4 53 3.8 N 15 17 8 9 1012.0 1012.0 0.0
26/03:00am 10.2 5.9 1.0 53 3.8 N 13 17 7 9 1012.4 1012.4 0.0
26/02:30am 10.3 5.6 1.1 53 3.8 N 15 17 8 9 1012.5 1012.5 0.0
26/02:00am 11.0 6.8 1.5 52 4.0 NNE 13 15 7 8 1012.6 1012.6 0.0
26/01:30am 10.6 5.9 1.2 52 3.9 NNE 15 17 8 9 1012.5 1012.5 0.0
26/01:00am 10.5 6.3 1.7 54 3.7 NE 13 17 7 9 1012.7 1012.7 0.0
26/12:30am 11.1 6.8 1.0 50 4.2 NNE 13 15 7 8 1012.5 1012.5 0.0
26/12:00am 11.2 6.2 1.1 50 4.2 N 17 20 9 11 1012.8 1012.8 0.0
 
Date/Time
EST
Temp
°C
App
Temp
°C
Dew
Point
°C
Rel
Hum
%
Delta-T
°C
Wind Press
QNH
hPa
Press
MSL
hPa
Rain since
9am
mm
Dir  Spd
km/h
Gust
km/h
Spd
kts
Gust
kts
25/11:30pm 11.9 6.9 1.2 48 4.5 NNW 17 26 9 14 1013.0 1013.0 0.0
25/11:00pm 11.7 6.8 1.9 51 4.2 NW 17 26 9 14 1013.2 1013.2 0.0
25/10:30pm 12.0 6.4 1.4 48 4.5 NW 20 28 11 15 1013.2 1013.2 0.0
25/10:00pm 12.4 6.9 1.6 47 4.6 NNW 20 28 11 15 1013.1 1013.1 0.0
25/09:30pm 12.6 7.0 1.3 46 4.8 NNW 20 32 11 17 1013.1 1013.1 0.0
25/09:00pm 12.6 7.3 1.6 47 4.7 NNW 19 24 10 13 1013.2 1013.2 0.0
25/08:30pm 13.0 7.1 1.6 46 4.9 NNW 22 30 12 16 1013.0 1013.0 0.0
25/08:00pm 13.7 6.5 0.7 41 5.5 NW 28 33 15 18 1012.8 1012.8 0.0
25/07:30pm 13.8 5.8 0.2 39 5.7 NW 32 41 17 22 1012.9 1012.9 0.0
25/07:00pm 14.2 6.6 0.5 39 5.8 NW 30 37 16 20 1012.8 1012.8 0.0
25/06:30pm 14.3 6.3 0.7 39 5.8 WNW 32 41 17 22 1012.6 1012.6 0.0
25/06:00pm 14.6 6.3 -0.2 36 6.2 WNW 33 44 18 24 1012.2 1012.2 0.0
25/05:30pm 14.9 7.5 -0.7 34 6.5 WNW 28 37 15 20 1011.7 1011.7 0.0
25/05:06pm 15.2 6.9 -0.6 34 6.6 WNW 33 52 18 28 1011.7 1011.7 0.0
25/05:00pm 15.5 6.8 -0.8 33 6.8 WNW 35 52 19 28 1011.6 1011.6 0.0
25/04:30pm 16.6 8.4 -0.7 31 7.3 WNW 32 41 17 22 1011.6 1011.6 0.0
25/04:00pm 16.9 8.0 -1.6 28 7.7 WNW 35 50 19 27 1011.4 1011.4 0.0
25/03:30pm 17.3 9.7 -2.0 26 8.0 WNW 28 39 15 21 1011.3 1011.3 0.0
25/03:00pm 17.5 10.6 -2.5 25 8.2 WNW 24 32 13 17 1011.5 1011.5 0.0
25/02:30pm 18.1 9.6 -2.9 24 8.6 WNW 32 43 17 23 1011.2 1011.2 0.0
25/02:19pm 18.2 10.6 -2.3 24 8.5 W 28 46 15 25 1011.2 1011.2 0.0
25/02:00pm 18.7 11.4 -2.9 23 8.9 WNW 26 39 14 21 1011.4 1011.4 0.0
25/01:30pm 18.0 10.7 -2.7 24 8.5 WNW 26 37 14 20 1011.5 1011.5 0.0
25/01:00pm 17.8 11.3 -2.3 25 8.3 W 22 32 12 17 1011.5 1011.5 0.0

Other Formats:

Comma delimited format used in spreadsheet applications
http://www.bom.gov.au/fwo/IDN60801/IDN60801.94767.axf

JavaScript Object Notation format (JSON) in row-major order
http://www.bom.gov.au/fwo/IDN60801/IDN60801.94767.json